sensor_id;sensor_type;location;lat;lon;timestamp;P1;durP1;ratioP1;P2;durP2;ratioP2
36303;SDS011;22335;49.800;8.596;2023-04-01T00:03:34;8.50;;;6.60;;
36303;SDS011;22335;49.800;8.596;2023-04-01T00:10:19;6.32;;;5.80;;
36303;SDS011;22335;49.800;8.596;2023-04-01T00:17:03;8.07;;;6.45;;
36303;SDS011;22335;49.800;8.596;2023-04-01T00:23:46;7.70;;;6.38;;
36303;SDS011;22335;49.800;8.596;2023-04-01T00:30:31;7.28;;;5.90;;
36303;SDS011;22335;49.800;8.596;2023-04-01T00:37:15;7.90;;;6.70;;
36303;SDS011;22335;49.800;8.596;2023-04-01T00:44:16;7.63;;;7.03;;
36303;SDS011;22335;49.800;8.596;2023-04-01T00:51:04;7.28;;;6.63;;
36303;SDS011;22335;49.800;8.596;2023-04-01T00:57:51;7.10;;;6.40;;
36303;SDS011;22335;49.800;8.596;2023-04-01T01:04:38;7.93;;;6.65;;
36303;SDS011;22335;49.800;8.596;2023-04-01T01:11:24;7.72;;;7.03;;
36303;SDS011;22335;49.800;8.596;2023-04-01T01:18:18;8.02;;;7.15;;
36303;SDS011;22335;49.800;8.596;2023-04-01T01:25:11;7.50;;;6.97;;
36303;SDS011;22335;49.800;8.596;2023-04-01T01:32:12;7.60;;;6.50;;
36303;SDS011;22335;49.800;8.596;2023-04-01T01:39:22;7.68;;;6.22;;
36303;SDS011;22335;49.800;8.596;2023-04-01T01:46:13;7.43;;;6.82;;
36303;SDS011;22335;49.800;8.596;2023-04-01T01:53:02;8.35;;;6.55;;
36303;SDS011;22335;49.800;8.596;2023-04-01T02:00:08;8.43;;;6.68;;
36303;SDS011;22335;49.800;8.596;2023-04-01T02:06:58;7.22;;;6.57;;
36303;SDS011;22335;49.800;8.596;2023-04-01T02:13:47;8.45;;;6.93;;
36303;SDS011;22335;49.800;8.596;2023-04-01T02:20:39;6.90;;;6.30;;
36303;SDS011;22335;49.800;8.596;2023-04-01T02:27:24;7.68;;;6.70;;
36303;SDS011;22335;49.800;8.596;2023-04-01T02:34:07;8.02;;;6.82;;
36303;SDS011;22335;49.800;8.596;2023-04-01T02:40:57;7.78;;;7.05;;
36303;SDS011;22335;49.800;8.596;2023-04-01T03:02:46;6.40;;;5.80;;
36303;SDS011;22335;49.800;8.596;2023-04-01T03:09:29;7.20;;;6.60;;
36303;SDS011;22335;49.800;8.596;2023-04-01T03:16:13;7.00;;;6.40;;
36303;SDS011;22335;49.800;8.596;2023-04-01T03:22:57;8.07;;;6.65;;
36303;SDS011;22335;49.800;8.596;2023-04-01T03:29:42;7.25;;;6.55;;
36303;SDS011;22335;49.800;8.596;2023-04-01T03:36:26;6.80;;;6.30;;
36303;SDS011;22335;49.800;8.596;2023-04-01T03:43:11;7.38;;;6.22;;
36303;SDS011;22335;49.800;8.596;2023-04-01T03:49:55;7.78;;;7.07;;
36303;SDS011;22335;49.800;8.596;2023-04-01T03:56:39;7.60;;;6.90;;
36303;SDS011;22335;49.800;8.596;2023-04-01T04:03:24;7.45;;;6.72;;
36303;SDS011;22335;49.800;8.596;2023-04-01T04:10:08;7.40;;;6.70;;
36303;SDS011;22335;49.800;8.596;2023-04-01T04:16:52;6.93;;;6.30;;
36303;SDS011;22335;49.800;8.596;2023-04-01T04:23:37;7.72;;;6.97;;
36303;SDS011;22335;49.800;8.596;2023-04-01T04:30:21;7.25;;;6.50;;
36303;SDS011;22335;49.800;8.596;2023-04-01T04:37:04;6.75;;;6.00;;
36303;SDS011;22335;49.800;8.596;2023-04-01T04:43:52;7.38;;;6.50;;
36303;SDS011;22335;49.800;8.596;2023-04-01T04:50:39;7.35;;;6.50;;
36303;SDS011;22335;49.800;8.596;2023-04-01T04:57:23;7.43;;;6.68;;
36303;SDS011;22335;49.800;8.596;2023-04-01T05:04:10;7.18;;;6.55;;
36303;SDS011;22335;49.800;8.596;2023-04-01T05:10:55;7.22;;;6.63;;
36303;SDS011;22335;49.800;8.596;2023-04-01T05:17:39;7.57;;;6.78;;
36303;SDS011;22335;49.800;8.596;2023-04-01T05:24:25;6.70;;;6.10;;
36303;SDS011;22335;49.800;8.596;2023-04-01T05:31:09;7.03;;;6.32;;
36303;SDS011;22335;49.800;8.596;2023-04-01T05:37:54;7.18;;;6.10;;
36303;SDS011;22335;49.800;8.596;2023-04-01T05:44:39;6.60;;;6.10;;
36303;SDS011;22335;49.800;8.596;2023-04-01T05:51:23;6.28;;;5.78;;
36303;SDS011;22335;49.800;8.596;2023-04-01T05:58:07;6.00;;;5.60;;
36303;SDS011;22335;49.800;8.596;2023-04-01T06:04:54;6.20;;;5.57;;
36303;SDS011;22335;49.800;8.596;2023-04-01T06:12:00;6.28;;;5.85;;
36303;SDS011;22335;49.800;8.596;2023-04-01T06:19:19;6.55;;;6.05;;
36303;SDS011;22335;49.800;8.596;2023-04-01T06:26:19;6.53;;;6.00;;
36303;SDS011;22335;49.800;8.596;2023-04-01T06:33:22;5.97;;;5.55;;
36303;SDS011;22335;49.800;8.596;2023-04-01T06:47:58;6.38;;;5.97;;
36303;SDS011;22335;49.800;8.596;2023-04-01T06:55:19;6.60;;;6.05;;
36303;SDS011;22335;49.800;8.596;2023-04-01T07:02:25;5.68;;;5.40;;
36303;SDS011;22335;49.800;8.596;2023-04-01T07:09:20;6.07;;;5.70;;
36303;SDS011;22335;49.800;8.596;2023-04-01T07:16:29;6.18;;;5.78;;
36303;SDS011;22335;49.800;8.596;2023-04-01T07:23:16;6.03;;;5.63;;
36303;SDS011;22335;49.800;8.596;2023-04-01T07:30:48;6.30;;;5.90;;
36303;SDS011;22335;49.800;8.596;2023-04-01T07:37:45;6.10;;;5.70;;
36303;SDS011;22335;49.800;8.596;2023-04-01T07:44:42;6.40;;;6.00;;
36303;SDS011;22335;49.800;8.596;2023-04-01T07:51:37;6.13;;;5.68;;
36303;SDS011;22335;49.800;8.596;2023-04-01T07:58:30;5.70;;;5.40;;
36303;SDS011;22335;49.800;8.596;2023-04-01T08:05:29;6.30;;;5.90;;
36303;SDS011;22335;49.800;8.596;2023-04-01T08:12:27;6.07;;;5.78;;
36303;SDS011;22335;49.800;8.596;2023-04-01T08:19:45;6.07;;;5.60;;
36303;SDS011;22335;49.800;8.596;2023-04-01T08:26:45;6.40;;;6.00;;
36303;SDS011;22335;49.800;8.596;2023-04-01T08:33:35;5.72;;;5.50;;
36303;SDS011;22335;49.800;8.596;2023-04-01T08:40:33;5.50;;;5.20;;
36303;SDS011;22335;49.800;8.596;2023-04-01T08:47:42;5.88;;;5.57;;
36303;SDS011;22335;49.800;8.596;2023-04-01T08:55:32;6.43;;;6.03;;
36303;SDS011;22335;49.800;8.596;2023-04-01T09:10:12;6.07;;;5.78;;
36303;SDS011;22335;49.800;8.596;2023-04-01T09:18:08;5.80;;;5.50;;
36303;SDS011;22335;49.800;8.596;2023-04-01T09:25:24;6.03;;;5.65;;
36303;SDS011;22335;49.800;8.596;2023-04-01T09:32:34;6.35;;;6.03;;
36303;SDS011;22335;49.800;8.596;2023-04-01T09:39:44;5.95;;;5.65;;
36303;SDS011;22335;49.800;8.596;2023-04-01T09:47:01;5.50;;;5.20;;
36303;SDS011;22335;49.800;8.596;2023-04-01T09:54:11;5.35;;;5.15;;
36303;SDS011;22335;49.800;8.596;2023-04-01T10:01:12;5.70;;;5.32;;
36303;SDS011;22335;49.800;8.596;2023-04-01T10:08:32;5.90;;;5.60;;
36303;SDS011;22335;49.800;8.596;2023-04-01T10:30:33;5.50;;;5.20;;
36303;SDS011;22335;49.800;8.596;2023-04-01T10:38:01;6.20;;;5.90;;
36303;SDS011;22335;49.800;8.596;2023-04-01T10:45:18;6.00;;;5.80;;
36303;SDS011;22335;49.800;8.596;2023-04-01T10:53:03;5.00;;;4.70;;
36303;SDS011;22335;49.800;8.596;2023-04-01T11:08:32;5.25;;;4.88;;
36303;SDS011;22335;49.800;8.596;2023-04-01T11:30:53;5.20;;;5.00;;
36303;SDS011;22335;49.800;8.596;2023-04-01T11:37:57;5.22;;;4.97;;
36303;SDS011;22335;49.800;8.596;2023-04-01T11:45:03;5.60;;;5.20;;
36303;SDS011;22335;49.800;8.596;2023-04-01T11:59:22;5.63;;;5.40;;
36303;SDS011;22335;49.800;8.596;2023-04-01T12:06:36;5.78;;;5.55;;
36303;SDS011;22335;49.800;8.596;2023-04-01T12:13:31;5.80;;;5.50;;
36303;SDS011;22335;49.800;8.596;2023-04-01T12:27:20;5.10;;;4.90;;
36303;SDS011;22335;49.800;8.596;2023-04-01T12:34:38;5.63;;;5.30;;
36303;SDS011;22335;49.800;8.596;2023-04-01T12:41:41;5.40;;;5.20;;
36303;SDS011;22335;49.800;8.596;2023-04-01T12:48:37;5.40;;;5.10;;
36303;SDS011;22335;49.800;8.596;2023-04-01T12:56:00;5.35;;;5.00;;
36303;SDS011;22335;49.800;8.596;2023-04-01T13:02:51;5.50;;;5.30;;
36303;SDS011;22335;49.800;8.596;2023-04-01T13:10:01;6.07;;;5.72;;
36303;SDS011;22335;49.800;8.596;2023-04-01T13:16:52;5.30;;;5.10;;
36303;SDS011;22335;49.800;8.596;2023-04-01T13:23:48;5.38;;;5.18;;
36303;SDS011;22335;49.800;8.596;2023-04-01T13:30:43;5.78;;;5.47;;
36303;SDS011;22335;49.800;8.596;2023-04-01T13:37:40;5.65;;;5.45;;
36303;SDS011;22335;49.800;8.596;2023-04-01T13:44:38;5.32;;;5.13;;
36303;SDS011;22335;49.800;8.596;2023-04-01T13:51:31;6.03;;;5.63;;
36303;SDS011;22335;49.800;8.596;2023-04-01T13:58:38;5.35;;;4.95;;
36303;SDS011;22335;49.800;8.596;2023-04-01T14:05:52;5.30;;;5.10;;
36303;SDS011;22335;49.800;8.596;2023-04-01T14:12:49;5.70;;;5.30;;
36303;SDS011;22335;49.800;8.596;2023-04-01T14:19:49;5.47;;;5.10;;
36303;SDS011;22335;49.800;8.596;2023-04-01T14:34:27;5.15;;;4.93;;
36303;SDS011;22335;49.800;8.596;2023-04-01T14:41:28;5.18;;;4.97;;
36303;SDS011;22335;49.800;8.596;2023-04-01T14:48:30;5.10;;;4.90;;
36303;SDS011;22335;49.800;8.596;2023-04-01T14:55:19;5.40;;;5.10;;
36303;SDS011;22335;49.800;8.596;2023-04-01T15:02:17;5.40;;;5.10;;
36303;SDS011;22335;49.800;8.596;2023-04-01T15:09:23;5.78;;;5.20;;
36303;SDS011;22335;49.800;8.596;2023-04-01T15:16:21;5.20;;;4.78;;
36303;SDS011;22335;49.800;8.596;2023-04-01T15:23:16;5.50;;;5.22;;
36303;SDS011;22335;49.800;8.596;2023-04-01T15:30:19;5.70;;;5.40;;
36303;SDS011;22335;49.800;8.596;2023-04-01T15:37:13;4.90;;;4.70;;
36303;SDS011;22335;49.800;8.596;2023-04-01T15:58:48;5.47;;;5.18;;
36303;SDS011;22335;49.800;8.596;2023-04-01T16:05:51;5.18;;;4.88;;
36303;SDS011;22335;49.800;8.596;2023-04-01T16:13:10;5.07;;;4.85;;
36303;SDS011;22335;49.800;8.596;2023-04-01T16:20:14;5.10;;;4.80;;
36303;SDS011;22335;49.800;8.596;2023-04-01T16:27:03;5.18;;;4.90;;
36303;SDS011;22335;49.800;8.596;2023-04-01T16:33:57;5.40;;;5.15;;
36303;SDS011;22335;49.800;8.596;2023-04-01T16:40:50;5.35;;;5.05;;
36303;SDS011;22335;49.800;8.596;2023-04-01T16:47:49;5.53;;;5.13;;
36303;SDS011;22335;49.800;8.596;2023-04-01T16:54:39;5.30;;;5.10;;
36303;SDS011;22335;49.800;8.596;2023-04-01T17:01:28;5.40;;;5.00;;
36303;SDS011;22335;49.800;8.596;2023-04-01T17:15:33;5.68;;;5.40;;
36303;SDS011;22335;49.800;8.596;2023-04-01T17:22:26;5.55;;;5.30;;
36303;SDS011;22335;49.800;8.596;2023-04-01T17:29:17;4.95;;;4.68;;
36303;SDS011;22335;49.800;8.596;2023-04-01T17:36:11;5.00;;;4.70;;
36303;SDS011;22335;49.800;8.596;2023-04-01T17:43:18;5.13;;;4.90;;
36303;SDS011;22335;49.800;8.596;2023-04-01T17:50:18;5.30;;;5.00;;
36303;SDS011;22335;49.800;8.596;2023-04-01T17:57:14;5.00;;;4.80;;
36303;SDS011;22335;49.800;8.596;2023-04-01T18:04:25;5.10;;;4.80;;
36303;SDS011;22335;49.800;8.596;2023-04-01T18:11:25;5.25;;;4.95;;
36303;SDS011;22335;49.800;8.596;2023-04-01T18:18:35;5.60;;;5.10;;
36303;SDS011;22335;49.800;8.596;2023-04-01T18:25:30;5.72;;;5.20;;
36303;SDS011;22335;49.800;8.596;2023-04-01T18:32:23;5.25;;;4.93;;
36303;SDS011;22335;49.800;8.596;2023-04-01T18:39:16;5.35;;;5.00;;
36303;SDS011;22335;49.800;8.596;2023-04-01T18:46:06;5.22;;;5.00;;
36303;SDS011;22335;49.800;8.596;2023-04-01T18:53:08;4.80;;;4.60;;
36303;SDS011;22335;49.800;8.596;2023-04-01T19:00:04;4.80;;;4.60;;
36303;SDS011;22335;49.800;8.596;2023-04-01T19:06:51;5.20;;;4.90;;
36303;SDS011;22335;49.800;8.596;2023-04-01T19:13:40;5.72;;;5.43;;
36303;SDS011;22335;49.800;8.596;2023-04-01T19:20:34;5.50;;;5.20;;
36303;SDS011;22335;49.800;8.596;2023-04-01T19:27:27;5.50;;;5.30;;
36303;SDS011;22335;49.800;8.596;2023-04-01T19:34:19;6.28;;;5.95;;
36303;SDS011;22335;49.800;8.596;2023-04-01T19:41:21;5.68;;;5.28;;
36303;SDS011;22335;49.800;8.596;2023-04-01T19:48:30;5.50;;;5.30;;
36303;SDS011;22335;49.800;8.596;2023-04-01T19:55:30;5.95;;;5.45;;
36303;SDS011;22335;49.800;8.596;2023-04-01T20:02:33;6.10;;;5.80;;
36303;SDS011;22335;49.800;8.596;2023-04-01T20:09:45;5.72;;;5.50;;
36303;SDS011;22335;49.800;8.596;2023-04-01T20:16:46;5.90;;;5.50;;
36303;SDS011;22335;49.800;8.596;2023-04-01T20:23:41;5.78;;;5.47;;
36303;SDS011;22335;49.800;8.596;2023-04-01T20:30:38;5.70;;;5.40;;
36303;SDS011;22335;49.800;8.596;2023-04-01T20:37:50;6.05;;;5.70;;
36303;SDS011;22335;49.800;8.596;2023-04-01T20:51:43;6.30;;;5.80;;
36303;SDS011;22335;49.800;8.596;2023-04-01T20:58:35;6.65;;;6.15;;
36303;SDS011;22335;49.800;8.596;2023-04-01T21:05:33;6.22;;;5.93;;
36303;SDS011;22335;49.800;8.596;2023-04-01T21:12:46;6.30;;;6.00;;
36303;SDS011;22335;49.800;8.596;2023-04-01T21:19:46;6.65;;;6.35;;
36303;SDS011;22335;49.800;8.596;2023-04-01T21:26:49;6.40;;;6.10;;
36303;SDS011;22335;49.800;8.596;2023-04-01T21:33:49;6.78;;;6.40;;
36303;SDS011;22335;49.800;8.596;2023-04-01T21:40:58;6.40;;;6.00;;
36303;SDS011;22335;49.800;8.596;2023-04-01T21:48:17;6.50;;;6.20;;
36303;SDS011;22335;49.800;8.596;2023-04-01T21:55:36;6.78;;;6.47;;
36303;SDS011;22335;49.800;8.596;2023-04-01T22:03:02;7.13;;;6.70;;
36303;SDS011;22335;49.800;8.596;2023-04-01T22:10:12;7.13;;;6.72;;
36303;SDS011;22335;49.800;8.596;2023-04-01T22:17:07;7.03;;;6.63;;
36303;SDS011;22335;49.800;8.596;2023-04-01T22:24:03;7.60;;;7.20;;
36303;SDS011;22335;49.800;8.596;2023-04-01T22:30:55;7.90;;;7.50;;
36303;SDS011;22335;49.800;8.596;2023-04-01T22:37:44;7.80;;;7.30;;
36303;SDS011;22335;49.800;8.596;2023-04-01T22:44:42;7.72;;;7.13;;
36303;SDS011;22335;49.800;8.596;2023-04-01T22:51:39;7.50;;;6.93;;
36303;SDS011;22335;49.800;8.596;2023-04-01T22:58:26;7.45;;;6.95;;
36303;SDS011;22335;49.800;8.596;2023-04-01T23:05:18;7.40;;;6.97;;
36303;SDS011;22335;49.800;8.596;2023-04-01T23:12:04;7.57;;;7.18;;
36303;SDS011;22335;49.800;8.596;2023-04-01T23:18:52;8.07;;;7.47;;
36303;SDS011;22335;49.800;8.596;2023-04-01T23:25:46;8.20;;;7.70;;
36303;SDS011;22335;49.800;8.596;2023-04-01T23:32:36;8.00;;;7.50;;
36303;SDS011;22335;49.800;8.596;2023-04-01T23:39:21;8.65;;;8.10;;
36303;SDS011;22335;49.800;8.596;2023-04-01T23:46:10;8.43;;;7.90;;
36303;SDS011;22335;49.800;8.596;2023-04-01T23:52:57;8.63;;;8.13;;
36303;SDS011;22335;49.800;8.596;2023-04-01T23:59:43;9.10;;;8.40;;
